Friesland, Wisconsin
Current Conditions -  °F | °C
As of 1:55 PM on Wednesday 17 Dec 2014 (Local Time) from KUNU Reporting Station
Overcast Overcast  
Wind Chill: 16°   Ceiling: 2000
Heat Index: 23°   Visibility: 10mi
Dew Point: 16°   Wind: 6mph
Humidity: 74%   Direction: 260°W
Pressure: 30.2"   Gusts: NA
Location:  43.59°N, 89.07°W
Report Text: KUNU 171955Z AUTO 26005KT 10SM OVC020 M05/M09 A3020 RMK AO2 T10501090
Loading
Personal Weather Stations






























Interactive Weather Map New forecast layout! Learn more

10-Day Weather Forecast

Advertisements
Track Severe Weather on mobile